Time;durP1;ratioP1;P1;durP2;ratioP2;P2;SDS_P1;SDS_P2;PMS_P1;PMS_P2;Temp;Humidity;BMP_temperature;BMP_pressure;BME280_temperature;BME280_humidity;BME280_pressure;Samples;Min_cycle;Max_cycle;Signal;HPM_P1;HPM_P2
2022/02/06 00:00:31;;;;;;;8.75;1.90;;;9.60;81.70;;;;;;5158711;27;20559;-76
2022/02/06 00:02:57;;;;;;;6.80;1.95;;;9.60;81.50;;;;;;5139552;27;20461;-76
2022/02/06 00:05:23;;;;;;;10.43;2.05;;;9.50;82.10;;;;;;5119933;27;20023;-76
2022/02/06 00:07:49;;;;;;;5.15;1.50;;;9.50;82.20;;;;;;5138123;27;20455;-76
2022/02/06 00:10:16;;;;;;;6.72;1.75;;;9.60;82.40;;;;;;5124859;27;20023;-76
2022/02/06 00:12:42;;;;;;;12.25;2.00;;;9.60;82.30;;;;;;5140581;27;20023;-77
2022/02/06 00:15:09;;;;;;;5.55;1.63;;;9.60;82.20;;;;;;5159183;27;20022;-76
2022/02/06 00:17:34;;;;;;;8.93;1.92;;;9.60;82.30;;;;;;5140189;27;20075;-76
2022/02/06 00:20:00;;;;;;;4.00;1.70;;;9.60;82.30;;;;;;5158769;27;20018;-77
2022/02/06 00:22:41;;;;;;;9.15;2.03;;;9.60;82.40;;;;;;5158567;27;20452;-76
2022/02/06 00:25:16;;;;;;;4.80;1.55;;;9.70;82.20;;;;;;5140233;27;20043;-76
2022/02/06 00:30:40;;;;;;;6.47;1.63;;;9.70;82.20;;;;;;5126843;27;20106;-76
2022/02/06 00:33:16;;;;;;;3.65;1.73;;;9.70;82.20;;;;;;5138384;27;20098;-76
2022/02/06 00:41:12;;;;;;;9.63;2.20;;;9.70;82.40;;;;;;5138750;27;20023;-77
2022/02/06 00:43:38;;;;;;;2.70;1.42;;;9.70;82.20;;;;;;5142363;27;20031;-76
2022/02/06 00:46:05;;;;;;;4.05;1.52;;;9.70;82.30;;;;;;5123752;27;20489;-76
2022/02/06 00:48:36;;;;;;;8.13;1.83;;;9.70;82.40;;;;;;5123833;27;20027;-76
2022/02/06 00:51:20;;;;;;;3.70;1.67;;;9.80;82.20;;;;;;5123933;27;20473;-76
2022/02/06 00:53:46;;;;;;;8.65;1.48;;;9.80;82.20;;;;;;5142061;27;20030;-76
2022/02/06 00:56:11;;;;;;;5.18;1.58;;;9.90;82.00;;;;;;5123462;27;20024;-77
2022/02/06 00:58:37;;;;;;;4.00;1.58;;;9.80;82.20;;;;;;5142121;27;20027;-77
2022/02/06 01:01:04;;;;;;;4.18;1.60;;;9.80;82.20;;;;;;5123184;27;20042;-76
2022/02/06 01:03:30;;;;;;;5.85;1.85;;;9.80;82.30;;;;;;5142213;27;20431;-77
2022/02/06 01:05:56;;;;;;;5.78;1.48;;;9.80;82.40;;;;;;5141962;27;20023;-76
2022/02/06 01:08:22;;;;;;;2.58;1.27;;;9.80;82.50;;;;;;5123353;27;20073;-77
2022/02/06 01:10:48;;;;;;;5.60;1.35;;;9.80;82.50;;;;;;5151104;27;20019;-77
2022/02/06 01:15:54;;;;;;;7.75;2.15;;;9.80;82.80;;;;;;5162464;27;20061;-76
2022/02/06 01:18:29;;;;;;;4.13;1.75;;;9.70;82.80;;;;;;5162509;27;20019;-76
2022/02/06 01:21:08;;;;;;;5.03;1.52;;;9.80;82.70;;;;;;5162211;27;20018;-76
2022/02/06 01:23:47;;;;;;;5.95;1.45;;;9.90;82.70;;;;;;5162243;27;20022;-76
2022/02/06 01:26:23;;;;;;;4.13;1.30;;;9.90;82.70;;;;;;5162271;27;20031;-76
2022/02/06 01:28:56;;;;;;;2.20;1.00;;;9.90;82.50;;;;;;5162375;27;20453;-76
2022/02/06 01:34:00;;;;;;;9.23;1.90;;;9.80;82.60;;;;;;5162281;27;20041;-76
2022/02/06 01:41:45;;;;;;;8.07;1.17;;;9.90;82.40;;;;;;5162042;27;20034;-76
2022/02/06 02:46:26;;;;;;;3.58;1.50;;;10.00;83.30;;;;;;5086439;27;20036;-77
2022/02/06 02:48:26;;;;;;;8.10;1.20;;;10.10;83.10;;;;;;5149289;27;20027;-77
2022/02/06 02:50:57;;;;;;;9.85;2.20;;;10.10;83.00;;;;;;5161053;27;20052;-77
2022/02/06 02:53:47;;;;;;;6.13;1.40;;;10.10;82.80;;;;;;5142009;27;20388;-77
2022/02/06 02:56:27;;;;;;;7.53;1.20;;;10.10;82.70;;;;;;5160160;27;20388;-77
2022/02/06 02:59:07;;;;;;;10.38;1.73;;;10.20;82.70;;;;;;5160593;27;20078;-77
2022/02/06 03:01:50;;;;;;;;;;;10.10;82.90;;;;;;5141304;27;20041;-76
2022/02/06 03:04:16;;;;;;;5.78;1.40;;;10.20;82.90;;;;;;5153150;27;19928;-76
2022/02/06 03:06:42;;;;;;;7.25;1.50;;;10.20;82.70;;;;;;5160253;27;20015;-76
2022/02/06 03:09:08;;;;;;;5.25;1.35;;;10.20;82.60;;;;;;5160225;27;20031;-77
2022/02/06 03:11:33;;;;;;;6.78;1.50;;;10.30;82.40;;;;;;5141909;27;20022;-77
2022/02/06 03:16:28;;;;;;;7.25;2.38;;;10.20;82.60;;;;;;5160128;27;20019;-76
2022/02/06 03:19:14;;;;;;;8.27;1.48;;;10.20;82.80;;;;;;5141464;27;20389;-76
2022/02/06 03:21:41;;;;;;;7.18;1.67;;;10.20;82.90;;;;;;5160129;27;20023;-76
2022/02/06 03:26:42;;;;;;;6.13;2.55;;;10.20;83.00;;;;;;5160118;27;20031;-77
2022/02/06 03:29:08;;;;;;;8.30;1.83;;;10.20;82.80;;;;;;5159927;27;20484;-77
2022/02/06 03:31:36;;;;;;;6.80;1.42;;;10.30;82.80;;;;;;5159905;27;20404;-77
2022/02/06 03:34:02;;;;;;;6.15;1.52;;;10.30;82.80;;;;;;5159780;27;20068;-76
2022/02/06 03:36:28;;;;;;;4.97;1.60;;;10.20;82.90;;;;;;5141304;27;20026;-76
2022/02/06 03:38:53;;;;;;;4.75;1.30;;;10.20;82.90;;;;;;5141105;27;20019;-76
2022/02/06 03:41:21;;;;;;;5.75;1.75;;;10.20;83.00;;;;;;5159890;27;20026;-77
2022/02/06 03:43:53;;;;;;;7.53;1.92;;;10.20;83.20;;;;;;5159601;27;20030;-76
2022/02/06 03:46:33;;;;;;;7.57;1.60;;;10.30;83.20;;;;;;5159603;27;20095;-76
2022/02/06 03:49:15;;;;;;;5.25;1.77;;;10.30;83.00;;;;;;5159734;27;20019;-76
2022/02/06 03:51:41;;;;;;;7.85;2.13;;;10.30;82.90;;;;;;5159585;27;20038;-76
2022/02/06 03:54:10;;;;;;;7.60;1.60;;;10.30;83.00;;;;;;5140792;27;20468;-76
2022/02/06 03:56:36;;;;;;;12.75;2.13;;;10.30;83.10;;;;;;5140581;27;20110;-76
2022/02/06 03:59:04;;;;;;;7.80;1.70;;;10.30;83.10;;;;;;5159400;27;20022;-76
2022/02/06 04:01:29;;;;;;;6.55;1.30;;;10.30;83.40;;;;;;5140651;27;20046;-77
2022/02/06 04:03:55;;;;;;;3.65;1.40;;;10.30;83.50;;;;;;5159267;27;20011;-76
2022/02/06 04:06:23;;;;;;;7.95;1.70;;;10.30;83.40;;;;;;5159199;27;20030;-76
2022/02/06 04:08:50;;;;;;;9.75;1.67;;;10.30;83.50;;;;;;5159158;27;20074;-76
2022/02/06 04:11:20;;;;;;;3.80;1.50;;;10.30;83.50;;;;;;5159249;27;20014;-76
2022/02/06 04:14:06;;;;;;;;;;;10.30;83.60;;;;;;5159708;27;20426;-76
2022/02/06 04:16:49;;;;;;;6.32;1.75;;;10.30;83.40;;;;;;5159065;27;19907;-76
2022/02/06 04:19:25;;;;;;;4.53;2.17;;;10.30;83.50;;;;;;5158951;27;20090;-76
2022/02/06 04:21:52;;;;;;;8.77;2.10;;;10.30;83.50;;;;;;5140349;27;20110;-76
2022/02/06 04:24:18;;;;;;;8.82;1.73;;;10.40;83.50;;;;;;5158942;27;20129;-76
2022/02/06 04:26:45;;;;;;;11.25;1.52;;;10.40;83.50;;;;;;5159192;27;20046;-76
2022/02/06 04:29:11;;;;;;;6.78;1.63;;;10.30;83.70;;;;;;5140534;27;20333;-76
2022/02/06 04:31:39;;;;;;;6.20;1.73;;;10.40;83.80;;;;;;5158994;27;20019;-76
2022/02/06 04:34:05;;;;;;;5.85;1.60;;;10.40;83.70;;;;;;5140654;27;20023;-76
2022/02/06 04:36:40;;;;;;;10.15;1.90;;;10.40;83.50;;;;;;5140233;27;20022;-76
2022/02/06 04:41:52;;;;;;;8.80;1.98;;;10.40;83.80;;;;;;5158788;27;20037;-76
2022/02/06 05:17:27;;;;;;;11.93;2.22;;;10.40;83.40;;;;;;5158455;27;20027;-76
2022/02/06 05:30:29;;;;;;;6.53;1.85;;;10.60;83.20;;;;;;5162239;27;20023;-77
2022/02/06 05:35:20;;;;;;;8.50;1.58;;;10.60;83.50;;;;;;5162342;27;20075;-76
2022/02/06 05:37:46;;;;;;;8.00;1.92;;;10.60;83.40;;;;;;5162213;27;20023;-76
2022/02/06 05:40:12;;;;;;;6.60;1.70;;;10.60;83.50;;;;;;5162141;27;20031;-76
2022/02/06 05:42:38;;;;;;;14.77;2.72;;;10.70;83.40;;;;;;5162102;27;20176;-77
2022/02/06 05:45:04;;;;;;;5.07;1.45;;;10.70;83.50;;;;;;5161984;27;20058;-77
2022/02/06 05:47:30;;;;;;;6.70;1.48;;;10.70;83.80;;;;;;5162015;27;20074;-77
2022/02/06 05:49:55;;;;;;;6.05;1.70;;;10.70;84.00;;;;;;5143339;27;20492;-76
2022/02/06 05:52:23;;;;;;;6.20;1.67;;;10.60;84.30;;;;;;5161682;27;20094;-76
2022/02/06 05:54:49;;;;;;;8.75;2.00;;;10.70;84.40;;;;;;5143243;27;20030;-76
2022/02/06 05:57:15;;;;;;;4.65;1.50;;;10.70;84.20;;;;;;5161584;27;20022;-76
2022/02/06 05:59:41;;;;;;;7.88;1.77;;;10.70;84.20;;;;;;5143145;27;20037;-76
2022/02/06 06:02:07;;;;;;;4.53;1.70;;;10.70;84.40;;;;;;5161765;27;20102;-77
2022/02/06 06:04:33;;;;;;;4.10;1.52;;;10.70;84.90;;;;;;5151499;27;20030;-77
2022/02/06 06:06:58;;;;;;;7.40;1.90;;;10.70;85.10;;;;;;5144482;27;20025;-76
2022/02/06 06:09:24;;;;;;;7.57;1.50;;;10.70;85.20;;;;;;5161212;27;20058;-76
2022/02/06 06:11:50;;;;;;;2.92;1.60;;;10.70;85.30;;;;;;5152493;27;20029;-77
2022/02/06 06:14:16;;;;;;;6.55;2.35;;;10.70;85.30;;;;;;5140412;27;20015;-77
2022/02/06 06:16:42;;;;;;;5.22;1.55;;;10.60;85.80;;;;;;5140822;27;20015;-76
2022/02/06 06:19:07;;;;;;;9.00;2.55;;;10.60;85.70;;;;;;5143770;27;20034;-77
2022/02/06 06:21:40;;;;;;;7.07;1.73;;;10.60;85.90;;;;;;5142448;27;20115;-76
2022/02/06 06:24:06;;;;;;;7.03;2.35;;;10.60;85.70;;;;;;5160739;27;20043;-77
2022/02/06 06:26:39;;;;;;;4.57;1.70;;;10.60;85.80;;;;;;5159728;27;20052;-76
2022/02/06 06:29:05;;;;;;;11.05;2.63;;;10.70;85.60;;;;;;5160886;27;20025;-77
2022/02/06 06:31:31;;;;;;;8.45;2.08;;;10.70;85.40;;;;;;5159774;27;20022;-76
2022/02/06 06:33:56;;;;;;;6.45;2.25;;;10.80;85.20;;;;;;5160907;27;20023;-76
2022/02/06 06:36:22;;;;;;;9.40;1.95;;;10.80;85.10;;;;;;5142576;27;20067;-76
2022/02/06 06:38:53;;;;;;;9.35;1.75;;;10.70;84.80;;;;;;5139773;27;20977;-77
2022/02/06 06:41:18;;;;;;;4.78;1.92;;;10.70;84.70;;;;;;5121961;27;20027;-76
2022/02/06 06:43:44;;;;;;;7.05;2.20;;;10.70;84.70;;;;;;5140031;27;20470;-76
2022/02/06 06:46:11;;;;;;;6.20;1.98;;;10.70;84.70;;;;;;5140309;27;20047;-77
2022/02/06 06:48:38;;;;;;;7.20;1.90;;;10.70;84.70;;;;;;5121298;27;20046;-77
2022/02/06 06:51:03;;;;;;;10.52;2.10;;;10.70;84.40;;;;;;5140264;27;20015;-76
2022/02/06 06:53:30;;;;;;;9.75;2.72;;;10.70;84.20;;;;;;5121617;27;20027;-76
2022/02/06 06:56:03;;;;;;;8.10;2.63;;;10.70;84.10;;;;;;5144999;27;20552;-77
2022/02/06 06:58:35;;;;;;;10.00;2.35;;;10.70;83.90;;;;;;5160498;27;20399;-76
2022/02/06 07:03:31;;;;;;;10.93;2.70;;;10.80;83.80;;;;;;5160498;27;20389;-76
2022/02/06 07:05:56;;;;;;;9.52;1.80;;;10.80;83.60;;;;;;5160586;27;20050;-77
2022/02/06 07:08:22;;;;;;;10.05;2.45;;;10.80;83.50;;;;;;5160064;27;20030;-77
2022/02/06 07:10:49;;;;;;;8.13;2.22;;;10.80;83.60;;;;;;5160204;27;20052;-76
2022/02/06 07:13:17;;;;;;;12.00;1.83;;;10.80;83.50;;;;;;5158777;27;20137;-77
2022/02/06 07:15:42;;;;;;;6.55;2.22;;;10.80;83.40;;;;;;5160234;27;20018;-76
2022/02/06 07:18:08;;;;;;;5.72;1.88;;;10.80;83.30;;;;;;5160184;27;20155;-76
2022/02/06 07:20:36;;;;;;;10.60;2.28;;;10.80;83.50;;;;;;5159738;27;20034;-77
2022/02/06 07:23:06;;;;;;;7.80;1.88;;;10.80;83.30;;;;;;5141236;27;20034;-77
2022/02/06 07:25:32;;;;;;;;;;;10.80;83.40;;;;;;5160340;27;20122;-76
2022/02/06 07:27:59;;;;;;;6.28;1.90;;;10.90;83.20;;;;;;5159879;27;19943;-76
2022/02/06 07:30:26;;;;;;;6.18;1.65;;;10.90;82.80;;;;;;5159843;27;20045;-77
2022/02/06 07:32:51;;;;;;;7.78;1.85;;;10.90;82.80;;;;;;5159931;27;20090;-77
2022/02/06 07:35:17;;;;;;;4.55;1.30;;;11.00;82.70;;;;;;5159542;27;20114;-77
2022/02/06 07:37:45;;;;;;;10.93;2.22;;;10.90;82.70;;;;;;5159939;27;20508;-76
2022/02/06 07:40:12;;;;;;;7.20;2.25;;;10.90;82.70;;;;;;5140933;27;20023;-76
2022/02/06 07:42:38;;;;;;;8.57;2.20;;;10.90;82.70;;;;;;5159736;27;20027;-76
2022/02/06 07:45:04;;;;;;;13.35;1.90;;;11.00;82.80;;;;;;5159472;27;20075;-77
2022/02/06 07:47:30;;;;;;;5.05;1.90;;;11.00;82.50;;;;;;5159399;27;20078;-77
2022/02/06 07:49:58;;;;;;;3.90;1.50;;;11.00;82.30;;;;;;5159232;27;20449;-77
2022/02/06 07:52:26;;;;;;;8.43;1.88;;;11.00;82.10;;;;;;5159138;27;20014;-76
2022/02/06 07:54:52;;;;;;;4.65;1.40;;;11.10;82.20;;;;;;5159537;27;20030;-77
2022/02/06 07:57:19;;;;;;;7.20;1.90;;;11.10;82.20;;;;;;5140811;27;20026;-77
2022/02/06 07:59:45;;;;;;;6.15;1.63;;;11.10;82.30;;;;;;5159141;27;20031;-76
2022/02/06 08:02:11;;;;;;;6.10;1.40;;;11.10;82.20;;;;;;5159308;27;20017;-76
2022/02/06 08:04:37;;;;;;;7.97;2.03;;;11.10;81.90;;;;;;5159189;27;20029;-77
2022/02/06 08:07:05;;;;;;;6.85;1.38;;;11.10;82.00;;;;;;5159155;27;20030;-77
2022/02/06 08:12:15;;;;;;;5.07;1.30;;;11.10;81.50;;;;;;5144213;27;20554;-77
2022/02/06 08:14:59;;;;;;;4.32;1.40;;;11.10;81.10;;;;;;5119760;27;20485;-77
2022/02/06 08:17:36;;;;;;;4.82;1.58;;;11.10;80.90;;;;;;5119808;28;20020;-76
2022/02/06 08:20:07;;;;;;;12.70;1.75;;;11.20;80.60;;;;;;5130622;27;20060;-77
2022/02/06 08:22:32;;;;;;;5.45;1.55;;;11.20;80.30;;;;;;5140256;27;20365;-76
2022/02/06 08:24:58;;;;;;;8.63;1.60;;;11.20;79.90;;;;;;5140113;27;20098;-76
2022/02/06 08:27:26;;;;;;;3.78;1.15;;;11.20;79.90;;;;;;5140639;27;20019;-77
2022/02/06 08:29:52;;;;;;;4.80;1.55;;;11.20;79.40;;;;;;5140393;27;20421;-77
2022/02/06 08:32:20;;;;;;;6.28;1.88;;;11.20;79.20;;;;;;5158717;27;20098;-77
2022/02/06 08:34:47;;;;;;;4.38;1.85;;;11.30;79.20;;;;;;5158665;27;20049;-76
2022/02/06 08:37:12;;;;;;;2.45;1.25;;;11.30;79.00;;;;;;5158616;27;20075;-77
2022/02/06 08:39:40;;;;;;;6.40;1.27;;;11.30;78.90;;;;;;5158667;27;20030;-77
2022/02/06 08:42:09;;;;;;;7.72;1.42;;;11.30;78.40;;;;;;5159130;27;20029;-76
2022/02/06 08:44:40;;;;;;;4.00;1.35;;;11.40;78.50;;;;;;5140017;27;20054;-76
2022/02/06 08:47:07;;;;;;;2.75;1.30;;;11.40;78.30;;;;;;5140175;27;20428;-77
2022/02/06 08:49:34;;;;;;;5.82;1.38;;;11.30;78.40;;;;;;5158337;27;20492;-77
2022/02/06 08:52:00;;;;;;;8.98;1.50;;;11.40;78.50;;;;;;5140024;27;20026;-76
2022/02/06 08:54:29;;;;;;;5.53;1.77;;;11.40;78.30;;;;;;5140267;27;20031;-76
2022/02/06 08:57:01;;;;;;;4.88;1.20;;;11.40;78.00;;;;;;5158788;27;20148;-76
2022/02/06 08:59:27;;;;;;;3.33;1.20;;;11.40;78.30;;;;;;5139822;27;20031;-77
2022/02/06 09:01:53;;;;;;;3.92;1.42;;;11.50;78.30;;;;;;5159563;27;20029;-76
2022/02/06 09:04:19;;;;;;;3.60;1.33;;;11.50;78.00;;;;;;5144108;27;20388;-77
2022/02/06 09:06:44;;;;;;;4.95;1.42;;;11.50;78.10;;;;;;5162511;27;20027;-77
2022/02/06 09:09:11;;;;;;;10.02;1.40;;;11.50;78.10;;;;;;5162664;27;20376;-77
2022/02/06 09:11:37;;;;;;;7.35;1.67;;;11.50;78.40;;;;;;5162429;27;20031;-76
2022/02/06 09:14:02;;;;;;;6.03;1.52;;;11.50;78.70;;;;;;5144083;27;20358;-76
2022/02/06 09:16:28;;;;;;;6.50;2.38;;;11.50;79.00;;;;;;5143717;27;20071;-77
2022/02/06 09:18:54;;;;;;;6.82;1.80;;;11.50;78.90;;;;;;5162720;27;20027;-77
2022/02/06 09:21:23;;;;;;;3.70;2.13;;;11.50;78.80;;;;;;5162348;27;20023;-76
2022/02/06 09:23:49;;;;;;;2.05;1.02;;;11.60;78.70;;;;;;5143390;27;20047;-77
2022/02/06 09:26:15;;;;;;;6.35;1.55;;;11.60;78.50;;;;;;5162153;27;20380;-77
2022/02/06 09:28:41;;;;;;;7.55;1.80;;;11.60;78.40;;;;;;5162324;27;20034;-76
2022/02/06 09:31:06;;;;;;;6.82;1.42;;;11.60;78.60;;;;;;5162329;27;20015;-77
2022/02/06 09:35:58;;;;;;;6.55;1.67;;;11.70;78.50;;;;;;5162138;27;20114;-76
2022/02/06 09:38:23;;;;;;;4.43;1.27;;;11.70;78.40;;;;;;5162057;27;20429;-76
2022/02/06 09:40:52;;;;;;;11.38;1.95;;;11.60;78.60;;;;;;5162211;27;20053;-76
2022/02/06 09:43:18;;;;;;;5.03;1.25;;;11.70;78.40;;;;;;5162116;27;20046;-77
2022/02/06 09:45:47;;;;;;;12.50;3.00;;;11.70;78.40;;;;;;5161763;27;20019;-77
2022/02/06 09:48:13;;;;;;;6.90;1.48;;;11.70;78.40;;;;;;5143157;27;20090;-77
2022/02/06 09:50:42;;;;;;;4.80;1.50;;;11.80;78.40;;;;;;5161864;27;20072;-77
2022/02/06 09:53:07;;;;;;;5.97;1.75;;;11.80;78.20;;;;;;5161810;27;20027;-76
2022/02/06 09:55:33;;;;;;;9.13;1.58;;;11.80;78.20;;;;;;5161992;27;20029;-76
2022/02/06 09:58:29;;;;;;;6.53;1.67;;;11.90;78.00;;;;;;5161808;27;20101;-76
2022/02/06 10:00:55;;;;;;;5.50;1.10;;;11.90;78.30;;;;;;5161866;27;20042;-77
2022/02/06 10:03:23;;;;;;;7.20;1.70;;;12.00;77.80;;;;;;5142962;27;20050;-77
2022/02/06 10:05:49;;;;;;;8.85;1.40;;;12.00;78.10;;;;;;5161431;27;20050;-77
2022/02/06 10:08:31;;;;;;;10.38;1.42;;;12.00;77.80;;;;;;5161397;27;20556;-77
2022/02/06 10:11:09;;;;;;;7.07;1.67;;;12.00;77.70;;;;;;5161278;27;20445;-77
2022/02/06 10:13:37;;;;;;;4.60;1.60;;;12.10;78.00;;;;;;5142086;27;20030;-77
2022/02/06 10:16:03;;;;;;;3.63;1.60;;;12.10;78.00;;;;;;5161262;27;20422;-76
2022/02/06 10:18:30;;;;;;;11.63;1.80;;;12.00;78.10;;;;;;5161317;27;20030;-76
2022/02/06 10:20:57;;;;;;;6.85;1.60;;;12.00;78.20;;;;;;5160984;27;20023;-77
2022/02/06 10:23:43;;;;;;;8.60;2.33;;;12.10;78.30;;;;;;5161293;27;20019;-77
2022/02/06 10:29:36;;;;;;;13.27;2.55;;;12.10;78.70;;;;;;5161415;27;20015;-77
2022/02/06 10:32:02;;;;;;;6.72;1.55;;;12.10;79.10;;;;;;5159742;27;20033;-76
2022/02/06 10:34:30;;;;;;;7.53;2.13;;;12.10;79.30;;;;;;5142412;27;20057;-76
2022/02/06 10:37:16;;;;;;;6.07;2.00;;;12.00;80.40;;;;;;5160998;27;20082;-76
2022/02/06 10:40:06;;;;;;;7.95;1.85;;;12.00;81.00;;;;;;5160933;27;20048;-77
2022/02/06 10:42:38;;;;;;;5.88;1.95;;;12.00;81.50;;;;;;5160667;27;20019;-77
2022/02/06 10:45:25;;;;;;;10.63;2.47;;;12.00;81.70;;;;;;5142016;27;20388;-77
2022/02/06 10:47:54;;;;;;;5.10;1.55;;;12.00;81.80;;;;;;5160736;27;20472;-77
2022/02/06 10:50:24;;;;;;;7.07;1.65;;;12.10;81.80;;;;;;5160952;27;20086;-77
2022/02/06 10:52:50;;;;;;;5.53;1.42;;;12.10;81.90;;;;;;5160559;27;20029;-76
2022/02/06 10:55:18;;;;;;;6.70;1.58;;;12.10;82.00;;;;;;5141892;27;20050;-77
2022/02/06 10:57:56;;;;;;;10.73;2.08;;;12.20;81.90;;;;;;5160577;27;20026;-77
2022/02/06 11:00:33;;;;;;;13.05;2.15;;;12.10;82.00;;;;;;5160348;27;20080;-76
2022/02/06 11:03:03;;;;;;;4.00;1.73;;;12.20;82.10;;;;;;5160420;27;20038;-76
2022/02/06 11:06:15;;;;;;;3.80;1.50;;;12.30;81.70;;;;;;5160442;27;20051;-76
2022/02/06 11:08:36;;;;;;;6.95;1.63;;;12.30;81.50;;;;;;5155993;27;20027;-76
2022/02/06 11:11:08;;;;;;;9.60;2.10;;;12.30;81.80;;;;;;5160163;27;20014;-77
2022/02/06 11:13:35;;;;;;;6.60;1.50;;;12.30;81.80;;;;;;5160606;27;20469;-77
2022/02/06 11:16:09;;;;;;;6.80;1.85;;;12.30;82.20;;;;;;5160274;27;20018;-76
2022/02/06 11:18:51;;;;;;;5.78;1.30;;;12.40;82.70;;;;;;5160178;27;20069;-76
2022/02/06 11:21:22;;;;;;;4.88;1.48;;;12.50;82.40;;;;;;5120924;27;20034;-76
2022/02/06 11:23:51;;;;;;;6.20;1.90;;;12.40;82.80;;;;;;5139308;27;20130;-77
2022/02/06 11:26:22;;;;;;;7.28;1.70;;;12.50;82.80;;;;;;5120014;27;20019;-77
2022/02/06 11:28:48;;;;;;;4.93;1.50;;;12.50;82.40;;;;;;5139569;27;20384;-76
2022/02/06 11:31:15;;;;;;;7.72;1.40;;;12.60;81.90;;;;;;5139055;27;20027;-77
2022/02/06 11:33:41;;;;;;;5.85;1.73;;;12.60;82.00;;;;;;5139089;27;20052;-77
2022/02/06 11:36:17;;;;;;;2.95;1.38;;;12.70;81.80;;;;;;5139139;27;20030;-77
2022/02/06 11:44:45;;;;;;;2.85;1.35;;;12.90;81.20;;;;;;5138998;27;20046;-77
2022/02/06 11:47:18;;;;;;;6.75;1.40;;;12.90;80.90;;;;;;5120100;27;20015;-77
2022/02/06 11:49:47;;;;;;;3.33;1.05;;;12.90;80.80;;;;;;5120537;27;20033;-77
2022/02/06 11:52:13;;;;;;;2.75;0.95;;;13.10;80.70;;;;;;5120152;27;20027;-77
2022/02/06 11:54:52;;;;;;;3.08;1.13;;;13.10;80.50;;;;;;5120565;27;20019;-76
2022/02/06 11:57:25;;;;;;;3.90;2.08;;;13.20;80.60;;;;;;5138845;27;20015;-74
2022/02/06 12:02:31;;;;;;;2.55;1.20;;;13.20;80.40;;;;;;5138551;27;20023;-77
2022/02/06 12:05:13;;;;;;;2.72;1.15;;;13.20;80.70;;;;;;5138488;27;20381;-77
2022/02/06 12:07:51;;;;;;;5.03;1.45;;;13.40;80.30;;;;;;5120060;27;20108;-77
2022/02/06 12:10:20;;;;;;;4.78;1.30;;;13.50;79.70;;;;;;5120065;27;20152;-77
2022/02/06 12:12:49;;;;;;;8.98;2.05;;;13.60;79.60;;;;;;5157407;27;20101;-77
2022/02/06 12:15:29;;;;;;;4.93;1.38;;;13.70;78.50;;;;;;5159251;27;20027;-74
2022/02/06 12:18:08;;;;;;;;;;;14.20;77.80;;;;;;5159360;27;20030;-74
2022/02/06 12:20:48;;;;;;;6.55;1.50;;;14.50;76.60;;;;;;5140339;27;19910;-77
2022/02/06 12:23:49;;;;;;;6.47;1.75;;;14.40;75.90;;;;;;5158804;27;20058;-77
2022/02/06 12:29:14;;;;;;;8.35;1.52;;;14.30;75.80;;;;;;5158840;27;20376;-77
2022/02/06 12:32:01;;;;;;;7.43;1.25;;;14.30;75.90;;;;;;5158817;27;20469;-77
2022/02/06 12:37:28;;;;;;;11.02;1.95;;;14.70;75.30;;;;;;5115810;27;20510;-77
2022/02/06 12:39:57;;;;;;;4.82;1.52;;;14.80;74.40;;;;;;5158969;27;20053;-77
2022/02/06 12:42:35;;;;;;;8.93;1.70;;;15.00;74.50;;;;;;5158749;27;20029;-77
2022/02/06 12:45:03;;;;;;;4.07;1.75;;;15.00;73.60;;;;;;5158914;27;20022;-77
2022/02/06 12:47:30;;;;;;;10.55;2.25;;;15.00;73.00;;;;;;5158785;27;20051;-77
2022/02/06 12:49:56;;;;;;;6.97;1.90;;;15.20;72.30;;;;;;5158837;27;20019;-77
2022/02/06 12:52:22;;;;;;;8.75;1.90;;;15.20;72.60;;;;;;5139864;27;20046;-77
2022/02/06 12:54:48;;;;;;;8.02;2.00;;;15.10;72.60;;;;;;5140312;27;20027;-77
2022/02/06 12:57:18;;;;;;;9.60;1.80;;;15.10;72.70;;;;;;5158662;27;20019;-77
2022/02/06 12:59:45;;;;;;;5.88;1.65;;;15.00;72.60;;;;;;5158925;27;20097;-77
2022/02/06 13:02:12;;;;;;;7.80;1.70;;;14.80;72.90;;;;;;5158681;27;20548;-77
2022/02/06 13:04:43;;;;;;;12.10;2.05;;;14.70;73.40;;;;;;5158617;27;20023;-77
2022/02/06 13:07:09;;;;;;;8.05;1.63;;;14.70;73.20;;;;;;5158296;27;20030;-77
2022/02/06 13:09:41;;;;;;;12.82;2.28;;;14.50;73.50;;;;;;5139982;27;20023;-77
2022/02/06 13:36:32;;;;;;;10.43;2.53;;;14.80;72.40;;;;;;5158411;27;20163;-77
2022/02/06 13:39:04;;;;;;;8.77;1.77;;;14.70;72.70;;;;;;5158147;27;20027;-77
2022/02/06 13:41:32;;;;;;;11.13;2.63;;;14.50;73.60;;;;;;5139593;27;20023;-77
2022/02/06 13:43:59;;;;;;;8.20;2.25;;;14.30;74.50;;;;;;5139564;27;20418;-77
2022/02/06 13:46:33;;;;;;;6.47;1.88;;;14.30;74.80;;;;;;5139601;27;20101;-77
2022/02/06 13:48:59;;;;;;;9.23;2.22;;;14.30;74.40;;;;;;5159280;27;20026;-77
2022/02/06 13:51:39;;;;;;;7.55;2.50;;;14.30;74.00;;;;;;5161924;27;20023;-76
2022/02/06 13:54:06;;;;;;;10.75;2.92;;;14.10;74.20;;;;;;5161877;27;20018;-77
2022/02/06 13:56:36;;;;;;;13.73;2.65;;;14.20;74.10;;;;;;5161872;27;20102;-76
2022/02/06 13:59:18;;;;;;;12.48;2.97;;;14.20;74.60;;;;;;5161681;27;20026;-76
2022/02/06 14:01:47;;;;;;;12.30;2.60;;;14.30;74.10;;;;;;5143161;27;20113;-77
2022/02/06 14:04:26;;;;;;;9.85;2.90;;;14.30;74.60;;;;;;5161552;27;20053;-76
2022/02/06 14:07:03;;;;;;;11.43;2.17;;;14.20;74.90;;;;;;5143001;27;20027;-77
2022/02/06 14:09:32;;;;;;;12.38;3.50;;;14.20;74.70;;;;;;5161378;27;20034;-77
2022/02/06 14:11:59;;;;;;;10.23;2.17;;;14.00;75.00;;;;;;5161307;27;20014;-77
2022/02/06 14:14:25;;;;;;;14.82;3.03;;;14.10;75.10;;;;;;5161197;27;20687;-76
2022/02/06 14:16:54;;;;;;;11.68;2.60;;;14.00;74.90;;;;;;5161740;27;20026;-77
2022/02/06 14:19:37;;;;;;;12.55;2.35;;;14.00;75.60;;;;;;5161171;27;20023;-77
2022/02/06 14:22:04;;;;;;;8.25;2.00;;;13.90;75.90;;;;;;5161285;27;20025;-77
2022/02/06 14:24:30;;;;;;;9.60;3.33;;;13.80;76.20;;;;;;5160849;27;20057;-77
2022/02/06 14:27:04;;;;;;;11.70;2.28;;;13.80;76.30;;;;;;5142538;27;20476;-77
2022/02/06 14:29:31;;;;;;;11.50;2.58;;;13.80;76.40;;;;;;5142668;27;20031;-77
2022/02/06 14:32:18;;;;;;;12.15;2.60;;;13.80;76.70;;;;;;5160530;27;20072;-77
2022/02/06 14:34:59;;;;;;;14.23;3.00;;;13.80;77.20;;;;;;5156388;27;20054;-76
2022/02/06 14:37:28;;;;;;;7.30;2.10;;;13.70;78.10;;;;;;5160963;27;20078;-77
2022/02/06 14:40:21;;;;;;;11.20;2.05;;;13.70;78.10;;;;;;5142250;27;20031;-77
2022/02/06 14:42:57;;;;;;;10.50;1.98;;;13.70;78.60;;;;;;5160924;27;20027;-77
2022/02/06 14:45:23;;;;;;;9.93;2.28;;;13.70;78.80;;;;;;5142032;27;20027;-77
2022/02/06 14:47:49;;;;;;;13.43;2.47;;;13.50;78.90;;;;;;5160785;27;20200;-77
2022/02/06 14:50:19;;;;;;;13.15;2.42;;;13.60;79.20;;;;;;5141963;27;20536;-76
2022/02/06 14:52:45;;;;;;;13.55;3.60;;;13.60;78.60;;;;;;5160703;27;20011;-77
2022/02/06 14:55:13;;;;;;;12.43;3.17;;;13.70;78.50;;;;;;5160555;27;20134;-76
2022/02/06 14:57:39;;;;;;;9.40;2.05;;;13.90;78.10;;;;;;5141989;27;20030;-77
2022/02/06 15:00:07;;;;;;;8.13;3.15;;;13.90;77.60;;;;;;5160280;27;20111;-77
2022/02/06 15:02:33;;;;;;;6.15;2.42;;;14.00;77.20;;;;;;5160561;27;20033;-77
2022/02/06 15:04:58;;;;;;;8.18;2.42;;;14.00;77.10;;;;;;5160142;27;20031;-77
2022/02/06 15:07:26;;;;;;;14.60;2.58;;;14.00;77.40;;;;;;5141722;27;20041;-77
2022/02/06 15:09:52;;;;;;;10.98;1.85;;;14.10;77.00;;;;;;5160292;27;20019;-77
2022/02/06 15:12:18;;;;;;;11.35;2.17;;;14.00;77.10;;;;;;5160005;27;20030;-77
2022/02/06 15:14:44;;;;;;;6.93;2.25;;;13.90;77.50;;;;;;5141329;27;20027;-77
2022/02/06 15:17:10;;;;;;;5.45;1.80;;;13.80;77.60;;;;;;5158964;27;20015;-77
2022/02/06 15:19:37;;;;;;;12.00;2.10;;;13.80;77.70;;;;;;5141308;27;20107;-76
2022/02/06 15:22:03;;;;;;;9.63;2.45;;;13.90;77.70;;;;;;5160101;27;20019;-77
2022/02/06 15:24:29;;;;;;;14.27;2.20;;;13.80;77.40;;;;;;5141074;27;20046;-77
2022/02/06 15:26:55;;;;;;;13.13;2.50;;;13.80;77.80;;;;;;5141381;27;20018;-77
2022/02/06 15:29:21;;;;;;;11.38;2.30;;;13.80;77.80;;;;;;5141440;27;20022;-77
2022/02/06 15:31:47;;;;;;;9.30;2.78;;;13.70;78.20;;;;;;5141315;27;20087;-77
2022/02/06 15:34:12;;;;;;;8.70;2.35;;;13.70;78.30;;;;;;5141173;27;20075;-77
2022/02/06 15:36:40;;;;;;;8.70;1.92;;;13.60;78.60;;;;;;5159701;27;20019;-76
2022/02/06 15:39:22;;;;;;;10.18;2.22;;;13.70;78.40;;;;;;5159811;27;20418;-77
2022/02/06 15:41:51;;;;;;;9.93;2.30;;;13.70;78.60;;;;;;5159869;27;20101;-77
2022/02/06 15:44:17;;;;;;;7.63;2.13;;;13.70;78.80;;;;;;5159539;27;20034;-77
2022/02/06 15:46:43;;;;;;;7.25;2.17;;;13.60;79.00;;;;;;5140893;27;20030;-77
2022/02/06 15:49:08;;;;;;;9.82;2.70;;;13.60;79.20;;;;;;5159622;27;20018;-77
2022/02/06 15:51:34;;;;;;;8.38;2.67;;;13.60;79.20;;;;;;5140740;27;20015;-77
2022/02/06 15:54:02;;;;;;;5.75;2.15;;;13.70;79.30;;;;;;5159441;27;20015;-76
2022/02/06 15:56:27;;;;;;;9.07;2.58;;;13.60;79.30;;;;;;5159480;27;20480;-76
2022/02/06 15:58:53;;;;;;;10.73;3.22;;;13.60;79.80;;;;;;5140791;27;20031;-76
2022/02/06 16:01:19;;;;;;;10.98;2.65;;;13.50;80.00;;;;;;5159219;27;20018;-76
2022/02/06 16:03:44;;;;;;;13.98;2.55;;;13.60;80.00;;;;;;5140689;27;20083;-77